Time;durP1;ratioP1;P1;durP2;ratioP2;P2;SDS_P1;SDS_P2;PMS_P1;PMS_P2;Temp;Humidity;BMP_temperature;BMP_pressure;BME280_temperature;BME280_humidity;BME280_pressure;Samples;Min_cycle;Max_cycle;Signal;HPM_P1;HPM_P2
2022/11/06 00:00:18;;;;;;;10.70;3.13;;;;;;;17.99;65.84;98764.84;6160316;23;20594;-90
2022/11/06 00:02:44;;;;;;;10.20;2.97;;;;;;;17.87;65.43;98756.19;6160196;23;20586;-90
2022/11/06 00:07:54;;;;;;;6.10;2.80;;;;;;;17.78;64.96;98755.19;6186538;23;20181;-89
2022/11/06 00:10:20;;;;;;;17.67;3.60;;;;;;;17.98;64.29;98764.00;6186120;23;20162;-89
2022/11/06 00:12:45;;;;;;;10.90;2.97;;;;;;;18.06;63.80;98756.22;6160086;23;20151;-90
2022/11/06 00:15:11;;;;;;;7.93;3.17;;;;;;;18.16;63.06;98758.91;6160054;23;20168;-90
2022/11/06 00:17:37;;;;;;;11.70;3.93;;;;;;;18.01;62.65;98760.25;6159970;23;20671;-90
2022/11/06 00:20:04;;;;;;;8.53;4.10;;;;;;;18.02;62.11;98757.47;6160009;23;20158;-90
2022/11/06 00:22:35;;;;;;;10.07;5.40;;;;;;;18.00;61.85;98756.78;6160335;23;20155;-90
2022/11/06 00:25:01;;;;;;;16.97;5.90;;;;;;;17.96;61.51;98765.13;6187002;23;20229;-90
2022/11/06 00:27:27;;;;;;;10.70;5.77;;;;;;;17.95;61.30;98768.75;6184606;23;20155;-90
2022/11/06 00:29:52;;;;;;;14.97;7.10;;;;;;;18.01;61.48;98758.44;6160236;23;20181;-90
2022/11/06 00:32:17;;;;;;;12.97;7.20;;;;;;;17.93;61.17;98754.78;6185943;23;20180;-90
2022/11/06 00:34:43;;;;;;;13.50;6.73;;;;;;;17.95;61.20;98748.38;6186196;23;20161;-90
2022/11/06 00:37:08;;;;;;;16.83;5.73;;;;;;;17.98;61.15;98757.84;6186915;23;20147;-90
2022/11/06 00:39:34;;;;;;;10.17;5.63;;;;;;;17.95;61.55;98755.50;6184798;23;20146;-91
2022/11/06 00:41:59;;;;;;;15.83;6.57;;;;;;;17.86;61.58;98754.50;6185846;23;20481;-90
2022/11/06 00:44:25;;;;;;;15.90;6.70;;;;;;;17.80;61.29;98753.22;6159844;23;20211;-90
2022/11/06 00:46:50;;;;;;;16.40;7.47;;;;;;;17.62;62.26;98752.19;6159883;23;20297;-90
2022/11/06 00:49:15;;;;;;;16.97;7.60;;;;;;;17.66;61.90;98748.28;6159971;23;20181;-90
2022/11/06 00:51:41;;;;;;;12.37;6.70;;;;;;;17.51;62.42;98749.59;6185792;23;20150;-90
2022/11/06 00:54:10;;;;;;;14.53;7.47;;;;;;;17.48;62.48;98759.63;6159787;23;20662;-90
2022/11/06 00:56:35;;;;;;;16.97;8.10;;;;;;;17.47;62.32;98755.31;6159699;23;20246;-91
2022/11/06 00:59:03;;;;;;;18.53;8.50;;;;;;;17.46;62.58;98759.75;6185660;23;20170;-90
2022/11/06 01:01:31;;;;;;;20.90;7.97;;;;;;;17.39;62.82;98755.13;6185663;23;20151;-90
2022/11/06 01:04:01;;;;;;;17.63;8.07;;;;;;;17.23;63.43;98763.53;6159965;23;20155;-90
2022/11/06 01:06:30;;;;;;;14.83;8.00;;;;;;;17.09;64.05;98758.56;6159592;23;20237;-90
2022/11/06 01:08:56;;;;;;;16.37;7.37;;;;;;;16.84;65.32;98756.34;6159748;23;20618;-90
2022/11/06 01:11:30;;;;;;;13.90;7.67;;;;;;;16.73;66.05;98759.03;6185954;23;20204;-90
2022/11/06 01:13:58;;;;;;;24.77;8.77;;;;;;;16.67;66.33;98756.88;6185718;23;20237;-90
2022/11/06 01:16:24;;;;;;;24.33;7.77;;;;;;;16.83;66.05;98762.59;6159602;23;20668;-90
2022/11/06 01:18:51;;;;;;;14.13;6.97;;;;;;;17.03;65.21;98753.81;6159855;23;20151;-90
2022/11/06 01:21:22;;;;;;;22.60;8.70;;;;;;;17.19;64.70;98748.88;6159863;23;20495;-90
2022/11/06 01:23:53;;;;;;;16.30;7.47;;;;;;;17.15;64.73;98752.75;6185528;23;20149;-90
2022/11/06 01:26:18;;;;;;;14.73;7.57;;;;;;;17.13;64.83;98758.22;6159605;23;20170;-90
2022/11/06 01:28:44;;;;;;;16.47;8.13;;;;;;;17.21;64.59;98754.91;6159666;23;20205;-90
2022/11/06 01:31:12;;;;;;;17.97;7.60;;;;;;;17.30;64.07;98755.91;6159748;23;20150;-90
2022/11/06 01:33:38;;;;;;;15.43;7.23;;;;;;;17.24;64.03;98757.28;6159382;23;20158;-91
2022/11/06 01:36:04;;;;;;;21.20;7.03;;;;;;;17.20;64.23;98756.69;6159731;23;20168;-90
2022/11/06 01:38:30;;;;;;;14.53;6.87;;;;;;;17.24;64.17;98756.44;6185655;23;20217;-90
2022/11/06 01:40:55;;;;;;;16.17;6.67;;;;;;;17.24;63.94;98762.59;6185366;23;20160;-90
2022/11/06 01:43:23;;;;;;;9.97;6.30;;;;;;;17.25;63.67;98760.75;6160022;23;20575;-91
2022/11/06 01:45:54;;;;;;;14.67;7.60;;;;;;;17.26;63.28;98751.84;6159391;23;20229;-91
2022/11/06 01:48:24;;;;;;;10.37;6.53;;;;;;;17.23;63.38;98750.31;6159582;23;20177;-89
2022/11/06 01:50:56;;;;;;;14.03;7.10;;;;;;;17.19;63.67;98751.53;6185798;23;20217;-90
2022/11/06 01:53:23;;;;;;;14.63;7.20;;;;;;;17.09;63.85;98753.28;6160090;23;20174;-90
2022/11/06 01:55:52;;;;;;;13.90;7.20;;;;;;;17.09;64.18;98761.22;6185262;23;20150;-90
2022/11/06 01:58:21;;;;;;;19.47;7.33;;;;;;;17.08;64.10;98756.91;6159596;23;20230;-90
2022/11/06 02:00:48;;;;;;;17.63;6.83;;;;;;;17.11;63.91;98754.81;6185484;23;20234;-89
2022/11/06 02:03:14;;;;;;;16.53;8.03;;;;;;;17.07;64.20;98755.22;6185201;23;20153;-90
2022/11/06 02:05:40;;;;;;;13.57;6.33;;;;;;;17.06;64.10;98754.38;6185560;23;20147;-90
2022/11/06 02:08:10;;;;;;;18.33;7.87;;;;;;;17.06;64.21;98759.69;6159296;23;20193;-90
2022/11/06 02:10:36;;;;;;;12.80;7.10;;;;;;;17.10;63.91;98754.97;6161253;23;20613;-90
2022/11/06 02:13:32;;;;;;;16.90;7.63;;;;;;;17.05;64.02;98757.16;6187301;23;20146;-90
2022/11/06 02:16:13;;;;;;;13.50;6.60;;;;;;;16.95;64.39;98743.88;6187632;23;20134;-90
2022/11/06 02:18:38;;;;;;;15.87;7.57;;;;;;;16.65;66.78;98749.09;6187213;23;20573;-91
2022/11/06 02:21:18;;;;;;;19.63;8.20;;;;;;;16.61;67.46;98752.13;6187204;23;20147;-90
2022/11/06 02:24:09;;;;;;;15.73;7.27;;;;;;;16.68;67.42;98750.63;6162456;23;20257;-90
2022/11/06 02:26:59;;;;;;;19.20;7.83;;;;;;;16.68;67.78;98743.53;6161430;23;20159;-90
2022/11/06 02:30:02;;;;;;;16.00;7.50;;;;;;;16.73;67.58;98743.16;6187238;23;20617;-90
2022/11/06 02:32:37;;;;;;;15.47;7.53;;;;;;;16.82;67.24;98735.31;6126659;23;20157;-89
2022/11/06 02:35:22;;;;;;;21.70;7.60;;;;;;;16.81;67.45;98740.72;6161152;23;20220;-90
2022/11/06 02:37:52;;;;;;;17.10;8.07;;;;;;;16.61;69.30;98742.38;6187508;23;20158;-90
2022/11/06 02:40:19;;;;;;;19.27;8.20;;;;;;;16.50;70.08;98740.59;6187374;23;20131;-90
2022/11/06 02:42:50;;;;;;;18.90;8.40;;;;;;;16.43;70.80;98738.59;6186962;23;20155;-90
2022/11/06 02:45:18;;;;;;;28.03;7.63;;;;;;;16.41;71.17;98745.78;6187346;23;20617;-90
2022/11/06 02:47:48;;;;;;;18.83;9.77;;;;;;;16.45;71.04;98742.78;6186851;23;20178;-90
2022/11/06 02:50:28;;;;;;;23.50;8.20;;;;;;;16.47;71.27;98750.59;6161416;23;20168;-91
2022/11/06 02:53:03;;;;;;;20.23;7.87;;;;;;;16.47;71.53;98750.59;6160997;23;20220;-90
2022/11/06 02:55:42;;;;;;;19.27;7.93;;;;;;;16.40;72.83;98744.94;6187207;23;20207;-90
2022/11/06 02:58:13;;;;;;;20.43;6.97;;;;;;;16.50;72.21;98753.84;6187211;23;20551;-90
2022/11/06 03:00:43;;;;;;;17.50;7.70;;;;;;;16.60;71.65;98753.94;6187187;23;20210;-91
2022/11/06 03:03:28;;;;;;;17.60;7.40;;;;;;;16.68;71.43;98759.44;6160869;23;20146;-90
2022/11/06 03:06:05;;;;;;;14.10;8.73;;;;;;;16.70;70.80;98756.63;6187203;23;20600;-91
2022/11/06 03:08:37;;;;;;;19.97;8.10;;;;;;;16.68;69.96;98758.59;6187428;23;20165;-90
2022/11/06 03:11:17;;;;;;;17.10;8.13;;;;;;;16.62;69.25;98759.94;6187700;23;20154;-90
2022/11/06 03:13:46;;;;;;;22.40;7.93;;;;;;;16.53;68.86;98764.16;6187020;23;20185;-90
2022/11/06 03:16:32;;;;;;;19.73;8.13;;;;;;;16.52;68.43;98764.28;6160656;23;20155;-90
2022/11/06 03:19:01;;;;;;;13.13;7.53;;;;;;;16.46;67.93;98760.31;6161037;23;20142;-90
2022/11/06 03:21:37;;;;;;;19.80;8.60;;;;;;;16.50;67.26;98759.13;6159956;23;20228;-90
2022/11/06 03:24:18;;;;;;;17.07;7.40;;;;;;;16.47;66.89;98763.81;6160588;23;20228;-90
2022/11/06 03:26:49;;;;;;;13.03;8.10;;;;;;;16.45;66.29;98763.97;6160492;23;20161;-90
2022/11/06 03:29:40;;;;;;;17.40;8.20;;;;;;;16.39;65.90;98761.81;6160962;23;20220;-90
2022/11/06 03:32:17;;;;;;;18.00;7.30;;;;;;;16.48;65.49;98763.69;6187290;23;20138;-90
2022/11/06 03:35:18;;;;;;;26.83;9.27;;;;;;;16.34;64.95;98760.50;6160885;23;20157;-90
2022/11/06 03:37:54;;;;;;;23.20;8.87;;;;;;;16.26;64.98;98761.13;6165892;23;20631;-90
2022/11/06 03:40:22;;;;;;;19.33;9.10;;;;;;;16.27;64.72;98751.41;6161653;23;20442;-90
2022/11/06 03:42:50;;;;;;;12.47;8.03;;;;;;;16.18;64.50;98752.97;6160468;23;20170;-90
2022/11/06 03:45:20;;;;;;;19.20;9.50;;;;;;;16.16;64.41;98751.41;6161392;23;20190;-91
2022/11/06 03:47:52;;;;;;;19.30;7.83;;;;;;;16.14;64.23;98753.34;6160331;23;20270;-91
2022/11/06 03:50:24;;;;;;;17.07;8.27;;;;;;;16.13;64.07;98757.81;6161162;23;20158;-90
2022/11/06 03:53:01;;;;;;;15.27;8.00;;;;;;;16.10;64.05;98759.84;6160317;23;20569;-90
2022/11/06 03:55:31;;;;;;;18.37;8.10;;;;;;;16.14;63.91;98754.19;6160366;23;20149;-90
2022/11/06 03:58:02;;;;;;;14.47;8.30;;;;;;;16.15;63.60;98755.03;6186325;23;20145;-90
2022/11/06 04:00:30;;;;;;;20.53;9.17;;;;;;;16.15;63.43;98750.56;6160300;23;20179;-90
2022/11/06 04:03:05;;;;;;;16.80;9.60;;;;;;;16.14;63.26;98756.81;6160205;23;20156;-90
2022/11/06 04:05:49;;;;;;;18.47;9.60;;;;;;;15.98;63.88;98764.34;6185159;23;20148;-90
2022/11/06 04:13:56;;;;;;;18.57;10.17;;;;;;;16.04;63.57;98763.00;6186456;23;20149;-90
2022/11/06 04:16:24;;;;;;;22.00;10.13;;;;;;;15.96;63.63;98760.94;6160455;23;20241;-90
2022/11/06 04:18:49;;;;;;;16.27;9.67;;;;;;;15.87;63.97;98759.91;6161034;23;20167;-90
2022/11/06 04:21:56;;;;;;;20.80;10.83;;;;;;;15.86;64.22;98760.84;6186055;23;20152;-90
2022/11/06 04:27:31;;;;;;;16.77;9.50;;;;;;;15.77;65.17;98752.84;6186009;23;20606;-90
2022/11/06 04:30:02;;;;;;;21.33;10.10;;;;;;;15.74;65.08;98751.28;6159851;23;20179;-90
2022/11/06 04:32:46;;;;;;;16.70;9.53;;;;;;;15.67;65.35;98749.25;6159815;23;20488;-90
2022/11/06 04:35:29;;;;;;;27.63;9.50;;;;;;;15.73;65.54;98748.75;6160372;23;20149;-90
2022/11/06 04:38:16;;;;;;;19.03;9.83;;;;;;;15.72;66.14;98745.25;6161408;23;20171;-90
2022/11/06 04:40:50;;;;;;;26.70;9.47;;;;;;;15.75;66.27;98744.16;6186222;23;20146;-90
2022/11/06 04:43:32;;;;;;;21.00;10.13;;;;;;;15.73;67.32;98744.31;6160142;23;20235;-90
2022/11/06 04:46:00;;;;;;;22.97;9.50;;;;;;;15.77;68.04;98752.84;6159926;23;20151;-90
2022/11/06 04:48:27;;;;;;;24.80;8.83;;;;;;;15.80;68.11;98755.25;6160385;23;20198;-91
2022/11/06 04:50:57;;;;;;;18.83;8.83;;;;;;;15.77;68.24;98756.31;6160481;23;20163;-90
2022/11/06 04:53:24;;;;;;;19.63;9.03;;;;;;;15.78;67.47;98759.78;6185920;23;20215;-91
2022/11/06 04:56:04;;;;;;;25.77;9.93;;;;;;;15.83;67.09;98762.91;6159806;23;20163;-90
2022/11/06 04:58:30;;;;;;;15.53;8.77;;;;;;;15.92;66.68;98760.38;6159868;23;20149;-90
2022/11/06 05:00:55;;;;;;;22.63;9.13;;;;;;;15.95;66.22;98754.84;6160409;23;20603;-91
2022/11/06 05:03:21;;;;;;;20.40;8.93;;;;;;;15.98;66.41;98759.88;6160122;23;20152;-91
2022/11/06 05:05:46;;;;;;;21.83;9.50;;;;;;;15.93;66.75;98761.22;6186133;23;20151;-90
2022/11/06 05:08:14;;;;;;;20.50;9.97;;;;;;;15.96;66.63;98756.50;6159886;23;20191;-91
2022/11/06 05:10:41;;;;;;;23.27;9.90;;;;;;;16.02;66.57;98756.97;6186535;23;20226;-91
2022/11/06 05:13:06;;;;;;;21.17;10.33;;;;;;;16.03;66.77;98751.59;6185563;23;20154;-90
2022/11/06 05:15:32;;;;;;;25.40;10.90;;;;;;;16.09;66.87;98756.34;6185609;23;20152;-91
2022/11/06 05:17:57;;;;;;;25.93;9.67;;;;;;;16.13;66.95;98755.16;6159652;23;20168;-91
2022/11/06 05:20:23;;;;;;;19.73;9.13;;;;;;;16.09;67.15;98752.91;6159689;23;20236;-91
2022/11/06 05:22:59;;;;;;;25.77;10.50;;;;;;;16.11;67.16;98765.03;6159501;23;20157;-91
2022/11/06 05:25:33;;;;;;;20.50;9.80;;;;;;;16.12;67.58;98764.03;6160189;23;20501;-91
2022/11/06 05:27:59;;;;;;;20.40;10.17;;;;;;;16.12;67.97;98764.03;6159528;23;20192;-91
2022/11/06 05:30:26;;;;;;;20.83;10.17;;;;;;;16.17;68.14;98771.63;6160166;23;20167;-91
2022/11/06 05:32:52;;;;;;;20.83;9.90;;;;;;;16.24;68.20;98776.28;6159803;23;20152;-90
2022/11/06 05:35:18;;;;;;;21.00;10.43;;;;;;;16.25;68.88;98777.09;6159866;23;20228;-91
2022/11/06 05:37:44;;;;;;;20.97;10.63;;;;;;;16.20;69.42;98785.41;6159824;23;20147;-90
2022/11/06 05:40:10;;;;;;;20.67;10.43;;;;;;;16.23;70.04;98784.31;6159461;23;20169;-91
2022/11/06 05:42:40;;;;;;;21.40;10.53;;;;;;;16.28;70.22;98793.56;6185838;23;20223;-91
2022/11/06 05:45:06;;;;;;;24.20;11.80;;;;;;;16.28;70.28;98788.28;6159301;23;20159;-91
2022/11/06 05:47:33;;;;;;;22.90;11.50;;;;;;;16.34;70.03;98781.66;6159649;23;20496;-91
2022/11/06 05:49:58;;;;;;;17.20;9.43;;;;;;;16.39;69.77;98788.25;6160027;23;20559;-91
2022/11/06 05:52:24;;;;;;;22.17;11.00;;;;;;;16.42;70.47;98792.44;6184126;23;20231;-91
2022/11/06 05:54:49;;;;;;;28.40;11.10;;;;;;;16.46;70.22;98797.34;6185665;23;20631;-90
2022/11/06 05:57:15;;;;;;;18.27;10.40;;;;;;;16.54;70.21;98805.53;6160268;23;20215;-91
2022/11/06 05:59:40;;;;;;;20.77;9.67;;;;;;;16.65;69.61;98817.06;6184396;23;20150;-90
2022/11/06 06:02:06;;;;;;;20.60;9.77;;;;;;;16.73;69.56;98818.09;6185282;23;20454;-90
2022/11/06 06:04:31;;;;;;;26.60;10.03;;;;;;;16.71;69.17;98817.41;6159676;23;20236;-90
2022/11/06 06:06:57;;;;;;;19.10;9.90;;;;;;;16.78;69.35;98815.06;6159250;23;20154;-91
2022/11/06 06:09:22;;;;;;;27.83;9.37;;;;;;;16.82;69.17;98819.16;6159544;23;20193;-90
2022/11/06 06:11:52;;;;;;;23.00;9.53;;;;;;;16.89;69.16;98821.16;6159300;23;20160;-91
2022/11/06 06:14:19;;;;;;;23.87;9.83;;;;;;;16.93;69.06;98821.72;6160230;23;20161;-90
2022/11/06 06:16:44;;;;;;;16.97;9.40;;;;;;;16.99;68.95;98822.06;6160239;23;20493;-90
2022/11/06 06:19:10;;;;;;;22.37;9.57;;;;;;;17.00;69.21;98833.50;6159697;23;20192;-91
2022/11/06 06:21:35;;;;;;;19.07;9.97;;;;;;;17.01;69.16;98836.03;6184344;23;20243;-90
2022/11/06 06:24:04;;;;;;;25.93;9.90;;;;;;;17.03;69.30;98839.38;6160099;23;20296;-90
2022/11/06 06:26:30;;;;;;;22.60;9.33;;;;;;;17.08;69.25;98847.81;6185517;23;20161;-90
2022/11/06 06:28:56;;;;;;;18.70;9.20;;;;;;;17.05;69.23;98853.34;6159066;23;20190;-90
2022/11/06 06:31:22;;;;;;;18.80;8.77;;;;;;;17.08;68.98;98852.25;6159474;23;20165;-91
2022/11/06 06:33:47;;;;;;;18.80;10.10;;;;;;;17.10;68.81;98856.44;6159483;23;20477;-90
2022/11/06 06:36:13;;;;;;;16.80;9.67;;;;;;;17.11;68.81;98866.06;6159547;23;20185;-90
2022/11/06 06:38:38;;;;;;;16.53;8.43;;;;;;;17.17;68.40;98867.34;6185444;23;20208;-91
2022/11/06 06:41:06;;;;;;;22.30;9.50;;;;;;;17.24;68.26;98865.91;6183902;23;20609;-90
2022/11/06 06:43:32;;;;;;;14.63;8.47;;;;;;;17.27;68.18;98878.84;6159466;23;20185;-90
2022/11/06 06:46:02;;;;;;;27.90;10.90;;;;;;;17.24;68.23;98876.50;6159385;23;20248;-91
2022/11/06 06:48:28;;;;;;;20.57;10.40;;;;;;;17.26;68.21;98876.34;6159506;23;20213;-91
2022/11/06 06:51:00;;;;;;;15.43;8.97;;;;;;;17.31;68.19;98879.44;6185179;23;20569;-91
2022/11/06 06:53:26;;;;;;;18.83;9.33;;;;;;;17.33;68.43;98877.50;6159476;23;20235;-91
2022/11/06 06:55:52;;;;;;;24.90;9.43;;;;;;;17.39;68.54;98893.75;6187542;23;20235;-91
2022/11/06 06:58:17;;;;;;;19.67;10.23;;;;;;;17.44;68.07;98891.53;6185793;23;20616;-91
2022/11/06 07:00:43;;;;;;;20.73;9.60;;;;;;;17.52;67.85;98881.13;6160895;23;20480;-91
2022/11/06 07:03:09;;;;;;;16.60;9.60;;;;;;;17.57;67.52;98884.25;6186121;23;20157;-91
2022/11/06 07:05:35;;;;;;;15.50;8.83;;;;;;;17.59;67.43;98886.78;6186080;23;20224;-91
2022/11/06 07:08:01;;;;;;;21.63;10.00;;;;;;;17.59;67.70;98884.97;6161340;23;20191;-91
2022/11/06 07:10:26;;;;;;;21.40;9.33;;;;;;;17.72;67.26;98875.00;6161756;23;20164;-91
2022/11/06 07:12:52;;;;;;;23.23;10.03;;;;;;;17.76;67.19;98887.03;6161144;23;20162;-91
2022/11/06 07:15:17;;;;;;;21.10;9.47;;;;;;;17.83;66.83;98881.19;6160700;23;20558;-91
2022/11/06 07:17:42;;;;;;;21.70;9.10;;;;;;;17.92;66.70;98875.09;6161050;23;20236;-91
2022/11/06 07:20:08;;;;;;;23.70;11.20;;;;;;;17.94;66.68;98874.00;6161069;23;20160;-91
2022/11/06 07:22:34;;;;;;;20.83;10.37;;;;;;;18.01;66.93;98880.44;6160903;23;20157;-90
2022/11/06 07:24:59;;;;;;;29.03;11.37;;;;;;;18.09;66.67;98871.81;6186709;23;20162;-92
2022/11/06 07:27:25;;;;;;;22.23;11.37;;;;;;;18.20;66.21;98861.09;6186666;23;20159;-91
2022/11/06 07:29:51;;;;;;;25.43;10.73;;;;;;;18.35;65.98;98851.78;6160469;23;20206;-90
2022/11/06 07:32:16;;;;;;;27.77;11.73;;;;;;;18.47;65.51;98861.34;6161549;23;20178;-90
2022/11/06 07:34:43;;;;;;;22.53;11.43;;;;;;;18.49;65.24;98858.56;6160933;23;20154;-91
2022/11/06 07:37:08;;;;;;;34.93;11.90;;;;;;;18.57;64.92;98856.91;6160946;23;20181;-90
2022/11/06 07:39:34;;;;;;;25.40;11.30;;;;;;;18.66;64.60;98856.06;6161651;23;20152;-91
2022/11/06 07:41:59;;;;;;;26.13;11.40;;;;;;;18.68;64.60;98848.81;6187611;23;20146;-91
2022/11/06 07:44:24;;;;;;;19.37;10.47;;;;;;;18.77;64.44;98853.28;6160632;23;20158;-91
2022/11/06 07:46:50;;;;;;;22.10;10.20;;;;;;;18.90;64.34;98858.31;6161162;23;20169;-91
2022/11/06 07:49:15;;;;;;;25.43;9.87;;;;;;;18.91;63.92;98854.69;6160745;23;20174;-91
2022/11/06 07:51:42;;;;;;;27.33;9.13;;;;;;;18.94;64.06;98851.75;6185650;23;20158;-92
2022/11/06 07:54:11;;;;;;;19.73;8.27;;;;;;;18.99;63.66;98860.97;6160711;23;20169;-91
2022/11/06 07:56:39;;;;;;;17.03;8.87;;;;;;;19.11;63.54;98863.47;6185574;23;20182;-91
2022/11/06 07:59:05;;;;;;;18.77;9.37;;;;;;;19.22;63.26;98866.00;6186088;23;20144;-93
2022/11/06 08:01:32;;;;;;;23.13;9.70;;;;;;;19.35;62.85;98861.22;6186917;23;20566;-91
2022/11/06 08:03:59;;;;;;;16.83;7.93;;;;;;;19.45;62.63;98870.88;6185984;23;20150;-90
2022/11/06 08:06:26;;;;;;;19.23;8.90;;;;;;;19.51;62.39;98869.47;6160290;23;20158;-92
2022/11/06 08:08:52;;;;;;;23.73;9.17;;;;;;;19.56;62.16;98875.22;6160947;23;20590;-92
2022/11/06 08:11:18;;;;;;;18.13;9.40;;;;;;;19.59;61.72;98881.09;6185212;23;20166;-90
2022/11/06 08:13:44;;;;;;;20.77;11.43;;;;;;;19.63;61.75;98877.16;6159914;23;20158;-91
2022/11/06 08:16:12;;;;;;;32.27;14.53;;;;;;;19.70;61.54;98880.09;6158219;23;20493;-90
2022/11/06 08:18:38;;;;;;;32.63;14.27;;;;;;;19.76;60.50;98878.66;6184519;23;20586;-91
2022/11/06 08:21:05;;;;;;;27.30;13.90;;;;;;;19.87;60.11;98875.81;6185562;23;20156;-91
2022/11/06 08:23:31;;;;;;;30.57;15.27;;;;;;;19.93;59.34;98881.41;6183882;23;20146;-92
2022/11/06 08:26:00;;;;;;;37.87;15.03;;;;;;;19.95;58.75;98873.25;6160850;23;20150;-91
2022/11/06 08:28:26;;;;;;;32.70;16.17;;;;;;;20.08;58.17;98879.94;6185725;23;20256;-92
2022/11/06 08:30:52;;;;;;;33.83;14.37;;;;;;;20.08;57.19;98865.78;6186100;23;20147;-92
2022/11/06 08:33:19;;;;;;;30.00;15.50;;;;;;;20.18;57.22;98870.09;6160155;23;20216;-92
2022/11/06 08:35:45;;;;;;;38.43;14.73;;;;;;;20.31;56.97;98869.75;6185934;23;20146;-93
2022/11/06 08:38:10;;;;;;;25.50;11.47;;;;;;;20.42;56.71;98874.06;6160006;23;20165;-90
2022/11/06 08:40:38;;;;;;;27.67;12.33;;;;;;;20.52;55.67;98882.84;6186670;23;20147;-91
2022/11/06 08:43:07;;;;;;;21.17;10.40;;;;;;;20.53;53.42;98873.84;6185974;23;20160;-91
2022/11/06 08:45:37;;;;;;;15.23;8.03;;;;;;;20.36;52.87;98883.47;6185930;23;20154;-91
2022/11/06 08:48:03;;;;;;;13.53;7.17;;;;;;;20.47;53.14;98885.94;6186044;23;20181;-91
2022/11/06 08:50:30;;;;;;;16.60;7.53;;;;;;;20.56;52.51;98884.22;6186116;23;20146;-91
2022/11/06 08:52:56;;;;;;;14.07;7.27;;;;;;;20.69;52.34;98884.69;6185922;23;20160;-91
2022/11/06 08:55:22;;;;;;;17.93;7.20;;;;;;;20.85;52.04;98879.53;6159853;23;20161;-91
2022/11/06 08:57:48;;;;;;;13.83;7.67;;;;;;;20.80;51.17;98876.50;6186114;23;20161;-91
2022/11/06 09:00:14;;;;;;;21.80;7.10;;;;;;;20.90;51.33;98876.41;6186037;23;20503;-90
2022/11/06 09:02:40;;;;;;;18.80;8.13;;;;;;;20.82;51.37;98879.84;6185990;23;20146;-90
2022/11/06 09:05:07;;;;;;;16.90;7.07;;;;;;;20.97;51.29;98878.31;6159686;23;20158;-91
2022/11/06 09:07:33;;;;;;;21.90;8.27;;;;;;;20.88;51.46;98876.56;6159807;23;20158;-91
2022/11/06 09:09:58;;;;;;;15.37;7.70;;;;;;;20.74;51.63;98882.41;6184492;23;20169;-90
2022/11/06 09:12:24;;;;;;;14.13;7.70;;;;;;;20.91;51.86;98880.75;6184442;23;20158;-91
2022/11/06 09:14:49;;;;;;;16.60;8.50;;;;;;;21.14;50.81;98879.34;6159683;23;20224;-90
2022/11/06 09:17:15;;;;;;;20.00;7.93;;;;;;;21.37;50.49;98875.19;6185505;23;20313;-91
2022/11/06 09:19:40;;;;;;;15.13;7.53;;;;;;;21.67;49.64;98879.25;6159726;23;20157;-91
2022/11/06 09:22:07;;;;;;;18.53;7.70;;;;;;;22.02;49.72;98882.66;6185635;23;20498;-91
2022/11/06 09:24:32;;;;;;;21.20;8.23;;;;;;;22.18;49.29;98878.41;6185436;23;20146;-91
2022/11/06 09:26:58;;;;;;;18.73;7.33;;;;;;;22.50;48.19;98876.69;6185597;23;20147;-91
2022/11/06 09:29:23;;;;;;;18.97;7.67;;;;;;;22.82;47.05;98886.69;6185294;23;20270;-91
2022/11/06 09:31:48;;;;;;;21.03;8.47;;;;;;;23.00;46.35;98879.34;6185474;23;20649;-91
2022/11/06 09:34:14;;;;;;;18.20;7.70;;;;;;;23.18;45.93;98876.53;6159540;23;20641;-91
2022/11/06 09:36:39;;;;;;;21.07;7.37;;;;;;;23.26;45.70;98871.19;6185468;23;20229;-90
2022/11/06 09:39:05;;;;;;;17.43;8.40;;;;;;;23.27;44.98;98875.50;6160401;23;20151;-91
2022/11/06 09:41:49;;;;;;;18.37;6.47;;;;;;;23.18;45.24;98864.00;6185456;23;20190;-91
2022/11/06 09:44:36;;;;;;;18.33;7.63;;;;;;;23.29;45.38;98865.50;6159416;23;20146;-91
2022/11/06 09:47:11;;;;;;;23.30;7.33;;;;;;;23.49;45.21;98858.81;6185407;23;20221;-91
2022/11/06 09:49:45;;;;;;;15.63;6.80;;;;;;;23.53;44.34;98862.81;6185188;23;20586;-91
2022/11/06 09:52:19;;;;;;;14.97;6.47;;;;;;;23.57;44.59;98853.47;6185515;23;20209;-91
2022/11/06 09:54:55;;;;;;;11.27;6.27;;;;;;;23.63;44.94;98859.97;6185346;23;20134;-91
2022/11/06 09:57:46;;;;;;;17.03;7.47;;;;;;;23.84;44.93;98853.09;6185976;23;20216;-90
2022/11/06 10:00:14;;;;;;;14.13;6.47;;;;;;;24.16;43.53;98851.34;6185664;23;20159;-91
2022/11/06 10:02:54;;;;;;;15.67;6.17;;;;;;;24.23;42.91;98836.25;6185563;23;20233;-91
2022/11/06 10:05:35;;;;;;;13.47;6.30;;;;;;;24.32;43.63;98848.56;6185999;23;20210;-92
2022/11/06 10:08:04;;;;;;;13.07;5.17;;;;;;;24.54;42.75;98855.00;6159193;23;20248;-91
2022/11/06 10:11:09;;;;;;;18.87;6.60;;;;;;;24.56;42.66;98843.09;6185253;23;20154;-91
2022/11/06 10:14:16;;;;;;;11.67;5.30;;;;;;;24.73;42.59;98841.16;6140844;23;20181;-91
2022/11/06 10:17:03;;;;;;;11.93;6.40;;;;;;;24.87;42.60;98838.56;6185583;23;20139;-91
2022/11/06 10:19:40;;;;;;;11.53;5.77;;;;;;;24.98;42.42;98838.16;6185874;23;20627;-90
2022/11/06 10:22:47;;;;;;;11.00;5.27;;;;;;;25.08;42.01;98831.75;6185612;23;20142;-92
2022/11/06 10:25:20;;;;;;;14.73;5.80;;;;;;;25.03;41.72;98835.78;6127968;23;20270;-92
2022/11/06 10:27:58;;;;;;;14.47;5.93;;;;;;;25.02;41.71;98831.44;6185027;23;20605;-92
2022/11/06 10:30:28;;;;;;;14.50;5.30;;;;;;;24.97;41.46;98820.38;6186364;23;20636;-91
2022/11/06 10:33:14;;;;;;;16.63;6.33;;;;;;;25.04;41.56;98828.56;6187186;23;20229;-92
2022/11/06 10:35:48;;;;;;;9.70;5.07;;;;;;;25.17;41.18;98827.97;6187860;23;20530;-91
2022/11/06 10:38:16;;;;;;;8.90;4.83;;;;;;;25.26;41.53;98818.84;6161187;23;20521;-91
2022/11/06 10:40:52;;;;;;;17.87;5.77;;;;;;;25.37;40.72;98816.53;6187036;23;20562;-91
2022/11/06 10:43:32;;;;;;;11.70;5.43;;;;;;;25.47;40.62;98810.97;6161064;23;20488;-93
2022/11/06 10:46:11;;;;;;;12.50;5.93;;;;;;;25.50;40.84;98810.56;6187382;23;20142;-91
2022/11/06 10:48:42;;;;;;;14.03;5.00;;;;;;;25.48;40.32;98812.63;6186981;23;20174;-90
2022/11/06 10:51:31;;;;;;;14.97;5.30;;;;;;;25.45;40.30;98813.78;6187194;23;20135;-91
2022/11/06 10:54:34;;;;;;;13.20;4.80;;;;;;;25.46;40.32;98804.75;6160882;23;20150;-90
2022/11/06 10:57:05;;;;;;;8.27;4.63;;;;;;;25.49;40.48;98803.56;6187197;23;20157;-90
2022/11/06 10:59:31;;;;;;;12.77;4.73;;;;;;;25.53;40.66;98802.16;6186888;23;20602;-91
2022/11/06 11:01:56;;;;;;;13.60;4.77;;;;;;;25.70;40.50;98800.97;6185665;23;20493;-91
2022/11/06 11:04:22;;;;;;;14.53;5.40;;;;;;;25.89;39.46;98794.22;6186805;23;20158;-90
2022/11/06 11:06:47;;;;;;;13.20;5.80;;;;;;;25.91;39.87;98793.03;6186736;23;20157;-91
2022/11/06 11:09:31;;;;;;;13.60;5.97;;;;;;;25.67;39.67;98793.28;6187052;23;20178;-94
2022/11/06 11:11:57;;;;;;;14.77;6.47;;;;;;;25.36;40.32;98784.53;6187202;23;20150;-91
2022/11/06 11:14:29;;;;;;;21.23;6.73;;;;;;;25.10;41.30;98789.47;6187253;23;20162;-92
2022/11/06 11:16:57;;;;;;;13.17;7.00;;;;;;;25.02;41.00;98780.50;6187193;23;20154;-91
2022/11/06 11:19:40;;;;;;;13.60;6.13;;;;;;;25.07;40.83;98781.78;6160780;23;20155;-91
2022/11/06 11:22:18;;;;;;;14.00;6.00;;;;;;;25.07;40.93;98779.09;6160788;23;20454;-92
2022/11/06 11:25:04;;;;;;;23.80;7.57;;;;;;;24.97;41.19;98776.69;6186769;23;20217;-91
2022/11/06 11:27:52;;;;;;;10.03;5.60;;;;;;;24.90;41.28;98771.19;6186945;23;20212;-92
2022/11/06 11:30:25;;;;;;;11.10;5.23;;;;;;;24.88;41.18;98781.25;6159797;23;20192;-91
2022/11/06 11:32:51;;;;;;;12.67;7.00;;;;;;;24.91;41.70;98778.22;6160672;23;20178;-90
2022/11/06 11:35:20;;;;;;;14.37;6.00;;;;;;;24.86;41.47;98775.25;6186547;23;20150;-90
2022/11/06 11:37:46;;;;;;;13.93;5.93;;;;;;;24.83;41.55;98767.56;6186422;23;20161;-91
2022/11/06 11:40:22;;;;;;;19.13;5.73;;;;;;;24.84;41.19;98766.53;6187077;23;20225;-91
2022/11/06 11:42:48;;;;;;;11.43;5.83;;;;;;;24.85;41.59;98764.69;6160045;23;20522;-91
2022/11/06 11:45:19;;;;;;;7.87;4.30;;;;;;;24.85;41.36;98770.06;6186777;23;20161;-90
2022/11/06 11:47:50;;;;;;;12.87;5.87;;;;;;;24.99;40.86;98767.44;6186679;23;20637;-91
2022/11/06 11:50:17;;;;;;;13.93;5.87;;;;;;;24.89;41.01;98764.19;6186395;23;20149;-90